Hauptseite
METAR-TAF:

METAR-TAF

Flughäfen :

Fliegerhorst Hohn

Hohn, Deutschland

Breite: 54-19N, Länge: 009-32E, Höhe: 12 m

Beobachtung

Neuester Wetterbericht von vor 56 Minuten, um 23:20 UTC
Wind 3 kt aus unterschiedlichen Richtungen
Temperatur -2°C
Luftfeuchtigkeit 93%
Luftdruck 1038 hPa
Sichtweite: 7000 m

METAR: ETNH 042320Z AUTO VRB03KT 7000 // ////// M02/M03 Q1038 ///

Zeit: 01:16 (00:16 UTC)


TAF: fehlend

Wetterbeobachtungen und Prognosen von mehr als 4000 Flughäfen (METAR und TAF Bericht).

Die verfügbaren Stationen werden durch gelbe und rote Markierungen auf der Karte dargestellt.

Führen Sie die Maus auf sie, um den Namen der Station zu sehen.

Darauf klicken, um die Beobachtung von Wetterbeobachtungen und Prognosen zu sehen.

Um die Karte zu ändern : klicken Sie auf den grünen Tasten mit einem schwarzen Kreuz Zum Vergrößern, auf den grünen Button mit einem Gedankenstrich zu verkleinern, oder auf die grünen Pfeile für benachbarte Karten.


METAR-TAF: